sensor_id;sensor_type;location;lat;lon;timestamp;pressure;altitude;pressure_sealevel;temperature
28905;BMP280;60848;53.884;11.446;2023-07-08T00:01:19;102046.28;;;19.33
28905;BMP280;60848;53.884;11.446;2023-07-08T00:03:48;102051.63;;;19.30
28905;BMP280;60848;53.884;11.446;2023-07-08T00:06:18;102048.25;;;19.26
28905;BMP280;60848;53.884;11.446;2023-07-08T00:08:49;102043.34;;;19.21
28905;BMP280;60848;53.884;11.446;2023-07-08T00:11:18;102040.38;;;19.15
28905;BMP280;60848;53.884;11.446;2023-07-08T00:13:47;102040.03;;;19.10
28905;BMP280;60848;53.884;11.446;2023-07-08T00:16:16;102037.75;;;19.05
28905;BMP280;60848;53.884;11.446;2023-07-08T00:18:46;102043.09;;;19.01
28905;BMP280;60848;53.884;11.446;2023-07-08T00:21:16;102045.41;;;18.96
28905;BMP280;60848;53.884;11.446;2023-07-08T00:23:48;102034.81;;;18.92
28905;BMP280;60848;53.884;11.446;2023-07-08T00:26:20;102030.69;;;18.88
28905;BMP280;60848;53.884;11.446;2023-07-08T00:28:50;102030.69;;;18.81
28905;BMP280;60848;53.884;11.446;2023-07-08T00:31:20;102034.91;;;18.75
28905;BMP280;60848;53.884;11.446;2023-07-08T00:33:52;102031.91;;;18.69
28905;BMP280;60848;53.884;11.446;2023-07-08T00:36:24;102024.75;;;18.59
28905;BMP280;60848;53.884;11.446;2023-07-08T00:38:53;102032.69;;;18.55
28905;BMP280;60848;53.884;11.446;2023-07-08T00:41:27;102028.56;;;18.51
28905;BMP280;60848;53.884;11.446;2023-07-08T00:43:59;102027.84;;;18.47
28905;BMP280;60848;53.884;11.446;2023-07-08T00:46:33;102028.97;;;18.42
28905;BMP280;60848;53.884;11.446;2023-07-08T00:49:15;102018.38;;;18.35
28905;BMP280;60848;53.884;11.446;2023-07-08T00:51:47;102020.28;;;18.31
28905;BMP280;60848;53.884;11.446;2023-07-08T00:54:17;102021.44;;;18.27
28905;BMP280;60848;53.884;11.446;2023-07-08T00:56:49;102020.31;;;18.24
28905;BMP280;60848;53.884;11.446;2023-07-08T00:59:19;102016.16;;;18.20
28905;BMP280;60848;53.884;11.446;2023-07-08T01:01:48;102020.69;;;18.16
28905;BMP280;60848;53.884;11.446;2023-07-08T01:04:19;102018.47;;;18.11
28905;BMP280;60848;53.884;11.446;2023-07-08T01:09:25;102026.81;;;17.99
28905;BMP280;60848;53.884;11.446;2023-07-08T01:11:58;102021.84;;;17.97
28905;BMP280;60848;53.884;11.446;2023-07-08T01:14:29;102021.13;;;17.97
28905;BMP280;60848;53.884;11.446;2023-07-08T01:16:59;102023.03;;;17.96
28905;BMP280;60848;53.884;11.446;2023-07-08T01:19:30;102022.25;;;17.96
28905;BMP280;60848;53.884;11.446;2023-07-08T01:22:02;102019.22;;;17.94
28905;BMP280;60848;53.884;11.446;2023-07-08T01:24:32;102019.25;;;17.90
28905;BMP280;60848;53.884;11.446;2023-07-08T01:27:02;102015.84;;;17.90
28905;BMP280;60848;53.884;11.446;2023-07-08T01:29:33;102011.28;;;17.87
28905;BMP280;60848;53.884;11.446;2023-07-08T01:32:01;102013.94;;;17.83
28905;BMP280;60848;53.884;11.446;2023-07-08T01:34:30;102015.06;;;17.79
28905;BMP280;60848;53.884;11.446;2023-07-08T01:36:59;102015.47;;;17.77
28905;BMP280;60848;53.884;11.446;2023-07-08T01:39:32;102015.47;;;17.74
28905;BMP280;60848;53.884;11.446;2023-07-08T01:42:01;102010.19;;;17.70
28905;BMP280;60848;53.884;11.446;2023-07-08T01:44:30;102012.81;;;17.67
28905;BMP280;60848;53.884;11.446;2023-07-08T01:47:00;102010.94;;;17.64
28905;BMP280;60848;53.884;11.446;2023-07-08T01:49:31;102012.81;;;17.60
28905;BMP280;60848;53.884;11.446;2023-07-08T01:52:00;102018.13;;;17.56
28905;BMP280;60848;53.884;11.446;2023-07-08T01:54:33;102009.44;;;17.52
28905;BMP280;60848;53.884;11.446;2023-07-08T01:57:01;102007.16;;;17.47
28905;BMP280;60848;53.884;11.446;2023-07-08T01:59:30;102004.50;;;17.44
28905;BMP280;60848;53.884;11.446;2023-07-08T02:01:59;102000.72;;;17.34
28905;BMP280;60848;53.884;11.446;2023-07-08T02:04:27;101999.97;;;17.34
28905;BMP280;60848;53.884;11.446;2023-07-08T02:06:58;102005.22;;;17.30
28905;BMP280;60848;53.884;11.446;2023-07-08T02:09:27;102010.16;;;17.25
28905;BMP280;60848;53.884;11.446;2023-07-08T02:11:57;102007.88;;;17.23
28905;BMP280;60848;53.884;11.446;2023-07-08T02:14:25;102006.34;;;17.19
28905;BMP280;60848;53.884;11.446;2023-07-08T02:16:54;102003.72;;;17.15
28905;BMP280;60848;53.884;11.446;2023-07-08T02:19:23;102002.94;;;17.11
28905;BMP280;60848;53.884;11.446;2023-07-08T02:21:53;102007.09;;;17.05
28905;BMP280;60848;53.884;11.446;2023-07-08T02:24:22;102010.44;;;17.02
28905;BMP280;60848;53.884;11.446;2023-07-08T02:26:50;102013.47;;;16.97
28905;BMP280;60848;53.884;11.446;2023-07-08T02:29:20;102012.34;;;16.95
28905;BMP280;60848;53.884;11.446;2023-07-08T02:31:51;102007.03;;;16.91
28905;BMP280;60848;53.884;11.446;2023-07-08T02:34:19;102007.78;;;16.88
28905;BMP280;60848;53.884;11.446;2023-07-08T02:36:48;102010.41;;;16.85
28905;BMP280;60848;53.884;11.446;2023-07-08T02:39:16;102007.75;;;16.81
28905;BMP280;60848;53.884;11.446;2023-07-08T02:41:44;102011.50;;;16.77
28905;BMP280;60848;53.884;11.446;2023-07-08T02:44:13;101999.41;;;16.72
28905;BMP280;60848;53.884;11.446;2023-07-08T02:46:42;102008.84;;;16.70
28905;BMP280;60848;53.884;11.446;2023-07-08T02:49:11;102009.19;;;16.68
28905;BMP280;60848;53.884;11.446;2023-07-08T02:51:42;101995.59;;;16.63
28905;BMP280;60848;53.884;11.446;2023-07-08T02:54:11;102016.34;;;16.61
28905;BMP280;60848;53.884;11.446;2023-07-08T02:56:39;102013.31;;;16.59
28905;BMP280;60848;53.884;11.446;2023-07-08T02:59:08;102015.56;;;16.57
28905;BMP280;60848;53.884;11.446;2023-07-08T03:01:36;102008.38;;;16.54
28905;BMP280;60848;53.884;11.446;2023-07-08T03:04:10;102007.59;;;16.50
28905;BMP280;60848;53.884;11.446;2023-07-08T03:06:45;102010.22;;;16.46
28905;BMP280;60848;53.884;11.446;2023-07-08T03:09:13;102011.72;;;16.44
28905;BMP280;60848;53.884;11.446;2023-07-08T03:11:42;102010.22;;;16.39
28905;BMP280;60848;53.884;11.446;2023-07-08T03:14:11;102007.50;;;16.36
28905;BMP280;60848;53.884;11.446;2023-07-08T03:16:39;102009.78;;;16.34
28905;BMP280;60848;53.884;11.446;2023-07-08T03:19:12;102010.16;;;16.32
28905;BMP280;60848;53.884;11.446;2023-07-08T03:21:42;102015.03;;;16.30
28905;BMP280;60848;53.884;11.446;2023-07-08T03:24:11;102018.44;;;16.31
28905;BMP280;60848;53.884;11.446;2023-07-08T03:26:43;102019.94;;;16.32
28905;BMP280;60848;53.884;11.446;2023-07-08T03:29:14;102015.06;;;16.34
28905;BMP280;60848;53.884;11.446;2023-07-08T03:31:46;102017.75;;;16.37
28905;BMP280;60848;53.884;11.446;2023-07-08T03:34:16;102009.06;;;16.40
28905;BMP280;60848;53.884;11.446;2023-07-08T03:36:46;102020.00;;;16.46
28905;BMP280;60848;53.884;11.446;2023-07-08T03:39:18;102022.31;;;16.51
28905;BMP280;60848;53.884;11.446;2023-07-08T03:41:48;102014.78;;;16.56
28905;BMP280;60848;53.884;11.446;2023-07-08T03:44:16;102016.34;;;16.64
28905;BMP280;60848;53.884;11.446;2023-07-08T03:46:46;102011.50;;;16.73
28905;BMP280;60848;53.884;11.446;2023-07-08T03:49:17;102010.03;;;16.83
28905;BMP280;60848;53.884;11.446;2023-07-08T03:51:49;102012.72;;;16.93
28905;BMP280;60848;53.884;11.446;2023-07-08T03:54:19;102008.19;;;17.04
28905;BMP280;60848;53.884;11.446;2023-07-08T03:56:48;102011.25;;;17.17
28905;BMP280;60848;53.884;11.446;2023-07-08T03:59:17;102013.16;;;17.27
28905;BMP280;60848;53.884;11.446;2023-07-08T04:01:46;102017.72;;;17.40
28905;BMP280;60848;53.884;11.446;2023-07-08T04:04:15;102010.53;;;17.51
28905;BMP280;60848;53.884;11.446;2023-07-08T04:06:45;102015.06;;;17.65
28905;BMP280;60848;53.884;11.446;2023-07-08T04:09:16;102007.88;;;17.79
28905;BMP280;60848;53.884;11.446;2023-07-08T04:11:46;102004.47;;;17.93
28905;BMP280;60848;53.884;11.446;2023-07-08T04:14:16;102001.44;;;18.08
28905;BMP280;60848;53.884;11.446;2023-07-08T04:16:50;102002.16;;;18.23
28905;BMP280;60848;53.884;11.446;2023-07-08T04:19:19;102000.94;;;18.41
28905;BMP280;60848;53.884;11.446;2023-07-08T04:21:53;102002.78;;;18.58
28905;BMP280;60848;53.884;11.446;2023-07-08T04:24:22;102008.75;;;18.77
28905;BMP280;60848;53.884;11.446;2023-07-08T04:26:50;101998.41;;;18.96
28905;BMP280;60848;53.884;11.446;2023-07-08T04:29:20;102001.31;;;19.16
28905;BMP280;60848;53.884;11.446;2023-07-08T04:31:49;102006.50;;;19.33
28905;BMP280;60848;53.884;11.446;2023-07-08T04:34:17;102009.78;;;19.48
28905;BMP280;60848;53.884;11.446;2023-07-08T04:36:47;102010.78;;;19.64
28905;BMP280;60848;53.884;11.446;2023-07-08T04:39:17;102013.28;;;19.82
28905;BMP280;60848;53.884;11.446;2023-07-08T04:41:45;101999.81;;;19.99
28905;BMP280;60848;53.884;11.446;2023-07-08T04:44:14;102006.09;;;20.16
28905;BMP280;60848;53.884;11.446;2023-07-08T04:46:46;102002.84;;;20.31
28905;BMP280;60848;53.884;11.446;2023-07-08T04:49:16;102004.59;;;20.45
28905;BMP280;60848;53.884;11.446;2023-07-08T04:51:44;102004.75;;;20.61
28905;BMP280;60848;53.884;11.446;2023-07-08T04:54:13;102000.03;;;20.75
28905;BMP280;60848;53.884;11.446;2023-07-08T04:56:44;102009.97;;;20.94
28905;BMP280;60848;53.884;11.446;2023-07-08T04:59:14;102008.53;;;21.13
28905;BMP280;60848;53.884;11.446;2023-07-08T05:01:43;102009.03;;;21.31
28905;BMP280;60848;53.884;11.446;2023-07-08T05:04:19;102008.69;;;21.48
28905;BMP280;60848;53.884;11.446;2023-07-08T05:06:50;102006.50;;;21.66
28905;BMP280;60848;53.884;11.446;2023-07-08T05:09:21;101992.16;;;21.80
28905;BMP280;60848;53.884;11.446;2023-07-08T05:11:54;101994.13;;;21.95
28905;BMP280;60848;53.884;11.446;2023-07-08T05:14:23;101990.94;;;22.04
28905;BMP280;60848;53.884;11.446;2023-07-08T05:16:51;101988.47;;;22.13
28905;BMP280;60848;53.884;11.446;2023-07-08T05:19:20;101987.09;;;22.24
28905;BMP280;60848;53.884;11.446;2023-07-08T05:21:49;101998.19;;;22.39
28905;BMP280;60848;53.884;11.446;2023-07-08T05:24:17;101994.72;;;22.58
28905;BMP280;60848;53.884;11.446;2023-07-08T05:26:48;101991.56;;;22.79
28905;BMP280;60848;53.884;11.446;2023-07-08T05:29:20;101990.03;;;22.94
28905;BMP280;60848;53.884;11.446;2023-07-08T05:31:49;101988.84;;;23.11
28905;BMP280;60848;53.884;11.446;2023-07-08T05:34:17;101984.16;;;23.31
28905;BMP280;60848;53.884;11.446;2023-07-08T05:36:46;101985.91;;;23.50
28905;BMP280;60848;53.884;11.446;2023-07-08T05:39:14;101989.31;;;23.79
28905;BMP280;60848;53.884;11.446;2023-07-08T05:41:45;101986.59;;;24.20
28905;BMP280;60848;53.884;11.446;2023-07-08T05:44:13;101980.75;;;24.72
28905;BMP280;60848;53.884;11.446;2023-07-08T05:46:43;101990.91;;;25.11
28905;BMP280;60848;53.884;11.446;2023-07-08T05:49:12;101989.78;;;25.21
28905;BMP280;60848;53.884;11.446;2023-07-08T05:51:40;102001.09;;;25.46
28905;BMP280;60848;53.884;11.446;2023-07-08T05:54:11;101987.66;;;25.59
28905;BMP280;60848;53.884;11.446;2023-07-08T05:56:39;101983.75;;;25.81
28905;BMP280;60848;53.884;11.446;2023-07-08T05:59:08;101985.75;;;25.99
28905;BMP280;60848;53.884;11.446;2023-07-08T06:01:36;101986.25;;;26.24
28905;BMP280;60848;53.884;11.446;2023-07-08T06:04:06;101983.34;;;26.40
28905;BMP280;60848;53.884;11.446;2023-07-08T06:06:34;101977.41;;;26.36
28905;BMP280;60848;53.884;11.446;2023-07-08T06:09:03;101984.38;;;26.43
28905;BMP280;60848;53.884;11.446;2023-07-08T06:11:32;101989.94;;;26.48
28905;BMP280;60848;53.884;11.446;2023-07-08T06:14:00;101984.41;;;26.52
28905;BMP280;60848;53.884;11.446;2023-07-08T06:16:29;101990.38;;;26.56
28905;BMP280;60848;53.884;11.446;2023-07-08T06:19:08;101995.84;;;26.43
28905;BMP280;60848;53.884;11.446;2023-07-08T06:21:39;102000.06;;;26.44
28905;BMP280;60848;53.884;11.446;2023-07-08T06:24:08;101999.75;;;26.51
28905;BMP280;60848;53.884;11.446;2023-07-08T06:26:36;101996.94;;;26.64
28905;BMP280;60848;53.884;11.446;2023-07-08T06:29:05;101995.47;;;26.81
28905;BMP280;60848;53.884;11.446;2023-07-08T06:31:33;101989.03;;;27.05
28905;BMP280;60848;53.884;11.446;2023-07-08T06:34:02;101982.16;;;27.22
28905;BMP280;60848;53.884;11.446;2023-07-08T06:36:32;101986.84;;;27.45
28905;BMP280;60848;53.884;11.446;2023-07-08T06:39:01;101979.63;;;27.69
28905;BMP280;60848;53.884;11.446;2023-07-08T06:41:32;101993.72;;;27.87
28905;BMP280;60848;53.884;11.446;2023-07-08T06:44:01;101990.66;;;28.03
28905;BMP280;60848;53.884;11.446;2023-07-08T06:46:31;101988.69;;;28.04
28905;BMP280;60848;53.884;11.446;2023-07-08T06:49:00;101978.72;;;27.95
28905;BMP280;60848;53.884;11.446;2023-07-08T06:51:28;101986.50;;;27.93
28905;BMP280;60848;53.884;11.446;2023-07-08T06:53:58;101986.94;;;28.01
28905;BMP280;60848;53.884;11.446;2023-07-08T06:56:28;101990.47;;;28.07
28905;BMP280;60848;53.884;11.446;2023-07-08T06:58:57;101986.69;;;28.13
28905;BMP280;60848;53.884;11.446;2023-07-08T07:01:25;101976.97;;;28.16
28905;BMP280;60848;53.884;11.446;2023-07-08T07:03:54;101981.94;;;28.32
28905;BMP280;60848;53.884;11.446;2023-07-08T07:06:25;101985.09;;;28.54
28905;BMP280;60848;53.884;11.446;2023-07-08T07:08:53;101979.16;;;28.64
28905;BMP280;60848;53.884;11.446;2023-07-08T07:11:23;101974.44;;;28.88
28905;BMP280;60848;53.884;11.446;2023-07-08T07:13:51;101979.56;;;29.01
28905;BMP280;60848;53.884;11.446;2023-07-08T07:16:22;101983.56;;;29.20
28905;BMP280;60848;53.884;11.446;2023-07-08T07:18:51;101981.66;;;29.40
28905;BMP280;60848;53.884;11.446;2023-07-08T07:21:19;101977.28;;;29.43
28905;BMP280;60848;53.884;11.446;2023-07-08T07:23:48;101973.75;;;29.51
28905;BMP280;60848;53.884;11.446;2023-07-08T07:26:19;101982.63;;;29.72
28905;BMP280;60848;53.884;11.446;2023-07-08T07:28:51;101983.28;;;29.87
28905;BMP280;60848;53.884;11.446;2023-07-08T07:31:20;101973.81;;;29.91
28905;BMP280;60848;53.884;11.446;2023-07-08T07:33:51;101980.22;;;29.94
28905;BMP280;60848;53.884;11.446;2023-07-08T07:36:19;101973.88;;;29.97
28905;BMP280;60848;53.884;11.446;2023-07-08T07:38:50;101971.50;;;30.04
28905;BMP280;60848;53.884;11.446;2023-07-08T07:41:18;101977.56;;;30.19
28905;BMP280;60848;53.884;11.446;2023-07-08T07:43:47;101976.16;;;30.24
28905;BMP280;60848;53.884;11.446;2023-07-08T07:46:17;101972.00;;;30.23
28905;BMP280;60848;53.884;11.446;2023-07-08T07:48:49;101978.03;;;30.18
28905;BMP280;60848;53.884;11.446;2023-07-08T07:51:20;101972.13;;;30.14
28905;BMP280;60848;53.884;11.446;2023-07-08T07:53:48;101973.88;;;30.17
28905;BMP280;60848;53.884;11.446;2023-07-08T07:56:17;101973.56;;;30.15
28905;BMP280;60848;53.884;11.446;2023-07-08T07:58:45;101982.09;;;30.08
28905;BMP280;60848;53.884;11.446;2023-07-08T08:01:17;101983.69;;;30.14
28905;BMP280;60848;53.884;11.446;2023-07-08T08:03:48;101993.84;;;30.45
28905;BMP280;60848;53.884;11.446;2023-07-08T08:06:20;101982.84;;;30.54
28905;BMP280;60848;53.884;11.446;2023-07-08T08:08:50;101974.44;;;30.46
28905;BMP280;60848;53.884;11.446;2023-07-08T08:11:18;101980.09;;;30.48
28905;BMP280;60848;53.884;11.446;2023-07-08T08:13:48;101975.59;;;30.65
28905;BMP280;60848;53.884;11.446;2023-07-08T08:16:23;101977.75;;;30.87
28905;BMP280;60848;53.884;11.446;2023-07-08T08:18:51;101973.44;;;31.00
28905;BMP280;60848;53.884;11.446;2023-07-08T08:21:20;101980.41;;;31.12
28905;BMP280;60848;53.884;11.446;2023-07-08T08:23:51;101978.59;;;31.35
28905;BMP280;60848;53.884;11.446;2023-07-08T08:26:19;101969.91;;;31.62
28905;BMP280;60848;53.884;11.446;2023-07-08T08:28:47;101977.59;;;31.74
28905;BMP280;60848;53.884;11.446;2023-07-08T08:31:16;101966.75;;;31.74
28905;BMP280;60848;53.884;11.446;2023-07-08T08:33:46;101966.47;;;31.72
28905;BMP280;60848;53.884;11.446;2023-07-08T08:36:14;101970.69;;;31.73
28905;BMP280;60848;53.884;11.446;2023-07-08T08:38:45;101972.97;;;31.86
28905;BMP280;60848;53.884;11.446;2023-07-08T08:41:17;101975.44;;;31.95
28905;BMP280;60848;53.884;11.446;2023-07-08T08:43:47;101976.69;;;31.94
28905;BMP280;60848;53.884;11.446;2023-07-08T08:46:23;101982.06;;;31.88
28905;BMP280;60848;53.884;11.446;2023-07-08T08:48:57;101975.41;;;31.84
28905;BMP280;60848;53.884;11.446;2023-07-08T08:51:28;101968.50;;;31.88
28905;BMP280;60848;53.884;11.446;2023-07-08T08:53:58;101973.97;;;31.99
28905;BMP280;60848;53.884;11.446;2023-07-08T08:56:28;101971.78;;;31.98
28905;BMP280;60848;53.884;11.446;2023-07-08T08:59:00;101961.22;;;32.05
28905;BMP280;60848;53.884;11.446;2023-07-08T09:01:31;101963.69;;;32.09
28905;BMP280;60848;53.884;11.446;2023-07-08T09:04:06;101970.81;;;32.06
28905;BMP280;60848;53.884;11.446;2023-07-08T09:06:39;101967.38;;;32.06
28905;BMP280;60848;53.884;11.446;2023-07-08T09:09:11;101960.25;;;32.14
28905;BMP280;60848;53.884;11.446;2023-07-08T09:11:49;101956.28;;;32.09
28905;BMP280;60848;53.884;11.446;2023-07-08T09:14:25;101959.69;;;31.99
28905;BMP280;60848;53.884;11.446;2023-07-08T09:16:57;101953.53;;;31.87
28905;BMP280;60848;53.884;11.446;2023-07-08T09:19:31;101951.81;;;31.90
28905;BMP280;60848;53.884;11.446;2023-07-08T09:22:02;101943.72;;;32.01
28905;BMP280;60848;53.884;11.446;2023-07-08T09:24:38;101942.75;;;32.15
28905;BMP280;60848;53.884;11.446;2023-07-08T09:27:09;101933.91;;;32.20
28905;BMP280;60848;53.884;11.446;2023-07-08T09:29:38;101940.31;;;32.33
28905;BMP280;60848;53.884;11.446;2023-07-08T09:32:14;101941.34;;;32.52
28905;BMP280;60848;53.884;11.446;2023-07-08T09:34:47;101941.06;;;32.77
28905;BMP280;60848;53.884;11.446;2023-07-08T09:37:23;101939.59;;;32.87
28905;BMP280;60848;53.884;11.446;2023-07-08T09:39:52;101933.41;;;32.81
28905;BMP280;60848;53.884;11.446;2023-07-08T09:42:21;101940.34;;;32.88
28905;BMP280;60848;53.884;11.446;2023-07-08T09:44:53;101934.41;;;32.84
28905;BMP280;60848;53.884;11.446;2023-07-08T09:47:24;101942.50;;;32.95
28905;BMP280;60848;53.884;11.446;2023-07-08T09:49:57;101942.78;;;33.02
28905;BMP280;60848;53.884;11.446;2023-07-08T09:52:25;101942.78;;;33.02
28905;BMP280;60848;53.884;11.446;2023-07-08T09:54:54;101933.38;;;33.09
28905;BMP280;60848;53.884;11.446;2023-07-08T09:57:28;101939.50;;;33.20
28905;BMP280;60848;53.884;11.446;2023-07-08T09:59:59;101932.34;;;33.23
28905;BMP280;60848;53.884;11.446;2023-07-08T10:02:32;101939.72;;;33.39
28905;BMP280;60848;53.884;11.446;2023-07-08T10:05:12;101939.63;;;33.61
28905;BMP280;60848;53.884;11.446;2023-07-08T10:07:41;101936.53;;;33.75
28905;BMP280;60848;53.884;11.446;2023-07-08T10:10:15;101944.63;;;33.92
28905;BMP280;60848;53.884;11.446;2023-07-08T10:12:51;101952.13;;;34.10
28905;BMP280;60848;53.884;11.446;2023-07-08T10:15:24;101942.69;;;33.87
28905;BMP280;60848;53.884;11.446;2023-07-08T10:17:55;101950.13;;;33.81
28905;BMP280;60848;53.884;11.446;2023-07-08T10:20:27;101938.94;;;33.90
28905;BMP280;60848;53.884;11.446;2023-07-08T10:23:07;101939.34;;;34.05
28905;BMP280;60848;53.884;11.446;2023-07-08T10:25:45;101945.72;;;34.13
28905;BMP280;60848;53.884;11.446;2023-07-08T10:28:25;101942.25;;;34.12
28905;BMP280;60848;53.884;11.446;2023-07-08T10:31:04;101948.16;;;34.16
28905;BMP280;60848;53.884;11.446;2023-07-08T10:33:48;101937.22;;;34.22
28905;BMP280;60848;53.884;11.446;2023-07-08T10:36:25;101929.38;;;34.18
28905;BMP280;60848;53.884;11.446;2023-07-08T10:39:14;101935.72;;;34.26
28905;BMP280;60848;53.884;11.446;2023-07-08T10:41:53;101932.19;;;34.37
28905;BMP280;60848;53.884;11.446;2023-07-08T10:44:26;101937.84;;;34.39
28905;BMP280;60848;53.884;11.446;2023-07-08T10:46:59;101936.00;;;34.23
28905;BMP280;60848;53.884;11.446;2023-07-08T10:49:47;101929.59;;;34.20
28905;BMP280;60848;53.884;11.446;2023-07-08T10:52:40;101934.56;;;34.16
28905;BMP280;60848;53.884;11.446;2023-07-08T10:55:18;101926.06;;;34.01
28905;BMP280;60848;53.884;11.446;2023-07-08T10:57:59;101924.84;;;33.91
28905;BMP280;60848;53.884;11.446;2023-07-08T11:00:34;101928.25;;;33.97
28905;BMP280;60848;53.884;11.446;2023-07-08T11:03:37;101927.81;;;33.93
28905;BMP280;60848;53.884;11.446;2023-07-08T11:06:10;101923.13;;;33.94
28905;BMP280;60848;53.884;11.446;2023-07-08T11:08:45;101929.25;;;34.00
28905;BMP280;60848;53.884;11.446;2023-07-08T11:11:25;101928.47;;;34.05
28905;BMP280;60848;53.884;11.446;2023-07-08T11:13:58;101928.69;;;34.07
28905;BMP280;60848;53.884;11.446;2023-07-08T11:16:30;101920.66;;;33.90
28905;BMP280;60848;53.884;11.446;2023-07-08T11:19:05;101918.53;;;33.78
28905;BMP280;60848;53.884;11.446;2023-07-08T11:21:35;101914.63;;;33.68
28905;BMP280;60848;53.884;11.446;2023-07-08T11:24:14;101908.97;;;33.66
28905;BMP280;60848;53.884;11.446;2023-07-08T11:26:46;101911.69;;;33.66
28905;BMP280;60848;53.884;11.446;2023-07-08T11:29:23;101917.88;;;33.66
28905;BMP280;60848;53.884;11.446;2023-07-08T11:31:52;101905.28;;;33.69
28905;BMP280;60848;53.884;11.446;2023-07-08T11:34:22;101908.16;;;33.82
28905;BMP280;60848;53.884;11.446;2023-07-08T11:36:54;101900.22;;;33.84
28905;BMP280;60848;53.884;11.446;2023-07-08T11:39:33;101905.72;;;33.67
28905;BMP280;60848;53.884;11.446;2023-07-08T11:42:21;101902.38;;;33.56
28905;BMP280;60848;53.884;11.446;2023-07-08T11:44:55;101907.03;;;33.55
28905;BMP280;60848;53.884;11.446;2023-07-08T11:47:26;101902.13;;;33.54
28905;BMP280;60848;53.884;11.446;2023-07-08T11:49:59;101896.72;;;33.48
28905;BMP280;60848;53.884;11.446;2023-07-08T11:52:29;101889.81;;;33.53
28905;BMP280;60848;53.884;11.446;2023-07-08T11:55:03;101904.88;;;33.48
28905;BMP280;60848;53.884;11.446;2023-07-08T11:57:37;101899.25;;;33.41
28905;BMP280;60848;53.884;11.446;2023-07-08T12:00:15;101897.25;;;33.41
28905;BMP280;60848;53.884;11.446;2023-07-08T12:02:50;101893.25;;;33.53
28905;BMP280;60848;53.884;11.446;2023-07-08T12:05:29;101901.16;;;33.57
28905;BMP280;60848;53.884;11.446;2023-07-08T12:07:58;101881.22;;;33.38
28905;BMP280;60848;53.884;11.446;2023-07-08T12:10:34;101899.00;;;33.33
28905;BMP280;60848;53.884;11.446;2023-07-08T12:13:03;101895.88;;;33.18
28905;BMP280;60848;53.884;11.446;2023-07-08T12:15:32;101886.78;;;32.99
28905;BMP280;60848;53.884;11.446;2023-07-08T12:18:10;101889.28;;;32.97
28905;BMP280;60848;53.884;11.446;2023-07-08T12:20:43;101886.84;;;32.94
28905;BMP280;60848;53.884;11.446;2023-07-08T12:23:14;101884.13;;;32.83
28905;BMP280;60848;53.884;11.446;2023-07-08T12:25:45;101877.75;;;32.69
28905;BMP280;60848;53.884;11.446;2023-07-08T12:28:13;101880.44;;;32.75
28905;BMP280;60848;53.884;11.446;2023-07-08T12:30:44;101879.94;;;32.87
28905;BMP280;60848;53.884;11.446;2023-07-08T12:33:16;101875.22;;;32.99
28905;BMP280;60848;53.884;11.446;2023-07-08T12:35:45;101865.81;;;33.11
28905;BMP280;60848;53.884;11.446;2023-07-08T12:38:19;101862.09;;;33.19
28905;BMP280;60848;53.884;11.446;2023-07-08T12:40:52;101862.53;;;33.29
28905;BMP280;60848;53.884;11.446;2023-07-08T12:43:20;101866.91;;;33.43
28905;BMP280;60848;53.884;11.446;2023-07-08T12:45:48;101869.06;;;33.50
28905;BMP280;60848;53.884;11.446;2023-07-08T12:48:17;101870.34;;;33.43
28905;BMP280;60848;53.884;11.446;2023-07-08T12:50:45;101870.88;;;33.42
28905;BMP280;60848;53.884;11.446;2023-07-08T12:53:14;101873.81;;;33.44
28905;BMP280;60848;53.884;11.446;2023-07-08T12:55:44;101870.81;;;33.47
28905;BMP280;60848;53.884;11.446;2023-07-08T12:58:18;101867.84;;;33.51
28905;BMP280;60848;53.884;11.446;2023-07-08T13:00:50;101862.63;;;33.58
28905;BMP280;60848;53.884;11.446;2023-07-08T13:03:20;101856.63;;;33.65
28905;BMP280;60848;53.884;11.446;2023-07-08T13:05:51;101860.34;;;33.68
28905;BMP280;60848;53.884;11.446;2023-07-08T13:08:21;101856.88;;;33.67
28905;BMP280;60848;53.884;11.446;2023-07-08T13:10:51;101860.34;;;33.68
28905;BMP280;60848;53.884;11.446;2023-07-08T13:13:26;101852.94;;;33.68
28905;BMP280;60848;53.884;11.446;2023-07-08T13:15:56;101859.34;;;33.71
28905;BMP280;60848;53.884;11.446;2023-07-08T13:18:29;101847.97;;;33.72
28905;BMP280;60848;53.884;11.446;2023-07-08T13:20:58;101854.41;;;33.69
28905;BMP280;60848;53.884;11.446;2023-07-08T13:23:28;101848.03;;;33.67
28905;BMP280;60848;53.884;11.446;2023-07-08T13:25:56;101846.56;;;33.60
28905;BMP280;60848;53.884;11.446;2023-07-08T13:28:35;101848.53;;;33.60
28905;BMP280;60848;53.884;11.446;2023-07-08T13:31:15;101848.03;;;33.61
28905;BMP280;60848;53.884;11.446;2023-07-08T13:33:51;101844.59;;;33.61
28905;BMP280;60848;53.884;11.446;2023-07-08T13:36:23;101843.16;;;33.54
28905;BMP280;60848;53.884;11.446;2023-07-08T13:38:51;101849.09;;;33.47
28905;BMP280;60848;53.884;11.446;2023-07-08T13:41:21;101844.00;;;33.38
28905;BMP280;60848;53.884;11.446;2023-07-08T13:43:51;101848.69;;;33.32
28905;BMP280;60848;53.884;11.446;2023-07-08T13:46:30;101844.31;;;33.24
28905;BMP280;60848;53.884;11.446;2023-07-08T13:49:00;101841.41;;;33.16
28905;BMP280;60848;53.884;11.446;2023-07-08T13:51:32;101837.97;;;33.05
28905;BMP280;60848;53.884;11.446;2023-07-08T13:54:09;101845.91;;;32.92
28905;BMP280;60848;53.884;11.446;2023-07-08T13:56:41;101854.56;;;32.79
28905;BMP280;60848;53.884;11.446;2023-07-08T13:59:16;101859.53;;;32.70
28905;BMP280;60848;53.884;11.446;2023-07-08T14:01:45;101853.13;;;32.62
28905;BMP280;60848;53.884;11.446;2023-07-08T14:04:15;101860.53;;;32.56
28905;BMP280;60848;53.884;11.446;2023-07-08T14:06:44;101851.69;;;32.50
28905;BMP280;60848;53.884;11.446;2023-07-08T14:09:14;101851.41;;;32.48